Time;durP1;ratioP1;P1;durP2;ratioP2;P2;SDS_P1;SDS_P2;PMS_P1;PMS_P2;Temp;Humidity;BMP_temperature;BMP_pressure;BME280_temperature;BME280_humidity;BME280_pressure;Samples;Min_cycle;Max_cycle;Signal;HPM_P1;HPM_P2
2024/02/07 00:00:00;;;;;;;7.35;4.93;;;;;;;8.42;100.00;99801.75;5003389;28;21639;-72
2024/02/07 00:02:35;;;;;;;7.95;5.35;;;;;;;8.27;100.00;99770.78;5020270;28;20066;-71
2024/02/07 00:05:03;;;;;;;8.23;4.88;;;;;;;8.49;100.00;99794.41;5010192;28;20057;-70
2024/02/07 00:07:34;;;;;;;7.03;5.05;;;;;;;8.45;100.00;99796.31;5032029;28;20648;-72
2024/02/07 00:10:04;;;;;;;9.55;4.88;;;;;;;8.42;100.00;99796.47;5024231;28;20042;-71
2024/02/07 00:12:32;;;;;;;6.60;4.63;;;;;;;8.37;100.00;99778.22;5008894;28;20049;-70
2024/02/07 00:15:02;;;;;;;8.25;4.65;;;;;;;8.39;100.00;99770.22;5015396;28;20029;-72
2024/02/07 00:17:29;;;;;;;6.15;4.40;;;;;;;8.37;100.00;99753.59;5030115;28;20049;-71
2024/02/07 00:19:57;;;;;;;6.93;4.30;;;;;;;8.42;100.00;99763.03;5027371;28;20132;-72
2024/02/07 00:22:27;;;;;;;5.47;4.20;;;;;;;8.39;100.00;99751.75;4992301;28;20041;-72
2024/02/07 00:24:55;;;;;;;7.65;4.85;;;;;;;8.42;100.00;99763.03;5020463;28;20484;-71
2024/02/07 00:27:24;;;;;;;5.82;4.03;;;;;;;8.40;100.00;99753.47;5010755;28;20052;-72
2024/02/07 00:29:52;;;;;;;6.72;4.60;;;;;;;8.38;100.00;99758.81;5013014;28;20128;-72
2024/02/07 00:32:21;;;;;;;5.47;4.03;;;;;;;8.38;100.00;99760.59;5032357;28;20084;-72
2024/02/07 00:34:50;;;;;;;9.27;4.65;;;;;;;8.35;100.00;99751.03;4993829;28;20056;-70
2024/02/07 00:37:18;;;;;;;6.82;4.25;;;;;;;8.49;100.00;99758.31;5004521;28;20046;-70
2024/02/07 00:39:47;;;;;;;6.47;5.07;;;;;;;8.41;100.00;99747.25;5011500;28;20046;-70
2024/02/07 00:42:17;;;;;;;7.00;4.30;;;;;;;8.40;100.00;99743.78;5022194;28;20065;-72
2024/02/07 00:44:45;;;;;;;7.10;4.83;;;;;;;8.44;100.00;99755.03;5024056;28;20046;-73
2024/02/07 00:47:13;;;;;;;9.10;5.55;;;;;;;8.46;100.00;99724.16;5012192;28;20052;-73
2024/02/07 00:49:46;;;;;;;9.93;5.30;;;;;;;8.56;100.00;99746.50;5005338;28;20421;-71
2024/02/07 00:52:16;;;;;;;10.52;5.55;;;;;;;8.56;100.00;99729.81;5020139;28;20054;-71
2024/02/07 00:54:50;;;;;;;7.85;5.53;;;;;;;8.57;100.00;99737.66;5022176;28;20064;-72
2024/02/07 00:57:20;;;;;;;12.38;5.90;;;;;;;8.49;100.00;99705.53;5007854;28;20052;-71
2024/02/07 00:59:50;;;;;;;9.02;5.85;;;;;;;8.63;100.00;99716.28;4997181;28;20049;-72
2024/02/07 01:02:18;;;;;;;10.43;6.35;;;;;;;8.64;100.00;99717.97;5016618;28;20049;-72
2024/02/07 01:04:49;;;;;;;10.85;6.53;;;;;;;8.65;100.00;99717.06;5006119;28;20453;-72
2024/02/07 01:07:17;;;;;;;13.35;6.93;;;;;;;8.69;100.00;99707.16;5015587;28;20054;-71
2024/02/07 01:09:46;;;;;;;10.10;6.93;;;;;;;8.67;100.00;99706.38;5024299;28;20083;-72
2024/02/07 01:12:18;;;;;;;13.15;7.40;;;;;;;8.70;100.00;99701.81;5011262;28;20045;-69
2024/02/07 01:14:47;;;;;;;15.48;7.45;;;;;;;8.69;100.00;99699.25;5018319;28;20140;-71
2024/02/07 01:17:15;;;;;;;16.92;8.40;;;;;;;8.68;100.00;99693.13;4994205;28;20073;-69
2024/02/07 01:19:45;;;;;;;11.77;8.13;;;;;;;8.77;100.00;99690.03;5013726;28;20046;-70
2024/02/07 01:22:14;;;;;;;12.80;7.15;;;;;;;8.66;100.00;99676.50;5022753;28;20046;-70
2024/02/07 01:24:43;;;;;;;14.35;7.82;;;;;;;8.78;100.00;99680.31;5028641;28;20046;-71
2024/02/07 01:27:12;;;;;;;13.68;7.50;;;;;;;8.89;100.00;99674.50;5008390;28;20037;-69
2024/02/07 01:29:40;;;;;;;12.77;7.22;;;;;;;8.94;100.00;99665.41;5019145;28;20359;-71
2024/02/07 01:32:08;;;;;;;12.45;7.43;;;;;;;8.91;100.00;99665.56;5027592;28;20045;-72
2024/02/07 01:34:37;;;;;;;13.45;7.93;;;;;;;8.86;100.00;99656.16;5006382;28;20064;-70
2024/02/07 01:37:06;;;;;;;11.50;7.95;;;;;;;8.90;100.00;99655.94;5016287;28;20077;-70
2024/02/07 01:39:35;;;;;;;14.82;7.65;;;;;;;8.98;100.00;99658.16;4992008;28;20141;-70
2024/02/07 01:42:03;;;;;;;10.63;7.07;;;;;;;8.92;100.00;99664.63;5000895;28;20058;-71
2024/02/07 01:44:31;;;;;;;17.52;8.10;;;;;;;8.92;100.00;99669.06;5003780;28;20053;-72
2024/02/07 01:47:14;;;;;;;15.60;8.40;;;;;;;8.81;100.00;99661.69;5023210;28;20110;-72
2024/02/07 01:49:48;;;;;;;14.20;8.02;;;;;;;8.83;100.00;99662.44;5012257;28;20129;-71
2024/02/07 01:52:22;;;;;;;14.48;8.23;;;;;;;8.89;100.00;99659.50;5005639;28;20272;-73
2024/02/07 01:54:53;;;;;;;14.32;8.27;;;;;;;8.90;100.00;99650.66;5025023;28;20057;-71
2024/02/07 01:57:23;;;;;;;15.20;8.75;;;;;;;8.98;100.00;99644.94;5024989;28;20042;-72
2024/02/07 01:59:51;;;;;;;15.18;8.38;;;;;;;8.76;100.00;99601.22;5020681;28;20057;-71
2024/02/07 02:02:25;;;;;;;19.35;9.45;;;;;;;8.91;100.00;99643.59;5023761;28;20042;-72
2024/02/07 02:04:53;;;;;;;13.32;9.50;;;;;;;8.87;100.00;99612.97;5020724;28;20099;-72
2024/02/07 02:07:23;;;;;;;22.05;9.73;;;;;;;8.86;100.00;99617.41;5022554;28;20129;-72
2024/02/07 02:09:51;;;;;;;15.57;9.02;;;;;;;8.78;100.00;99612.53;5021249;28;20435;-70
2024/02/07 02:12:21;;;;;;;17.67;9.15;;;;;;;8.81;100.00;99600.97;5010729;28;20467;-70
2024/02/07 02:14:52;;;;;;;15.18;9.18;;;;;;;8.86;100.00;99614.78;5022416;28;20042;-71
2024/02/07 02:17:19;;;;;;;15.80;9.57;;;;;;;8.88;100.00;99617.34;5022736;28;20037;-71
2024/02/07 02:19:53;;;;;;;16.42;8.95;;;;;;;8.87;100.00;99598.00;5005360;28;20042;-70
2024/02/07 02:22:46;;;;;;;15.32;8.35;;;;;;;8.78;100.00;99604.63;5017960;28;20072;-71
2024/02/07 02:25:50;;;;;;;15.82;8.52;;;;;;;8.91;100.00;99603.97;4999060;28;20041;-69
2024/02/07 02:28:31;;;;;;;16.35;8.68;;;;;;;8.89;100.00;99582.06;5026510;28;20046;-71
2024/02/07 02:31:04;;;;;;;15.25;9.27;;;;;;;8.83;100.00;99588.53;5015649;28;20536;-71
2024/02/07 02:33:36;;;;;;;17.45;9.20;;;;;;;8.76;100.00;99580.09;5027008;28;20049;-72
2024/02/07 02:36:08;;;;;;;12.88;8.63;;;;;;;8.78;100.00;99593.22;5025617;28;20136;-72
2024/02/07 02:38:37;;;;;;;15.65;8.98;;;;;;;8.79;100.00;99590.50;5027839;28;20510;-72
2024/02/07 02:41:07;;;;;;;15.27;9.65;;;;;;;8.76;100.00;99569.53;5016630;28;20121;-71
2024/02/07 02:43:37;;;;;;;14.43;8.70;;;;;;;8.74;100.00;99586.38;4994815;28;20045;-70
2024/02/07 02:46:09;;;;;;;14.65;8.90;;;;;;;8.78;100.00;99553.63;4986980;28;20153;-72
2024/02/07 02:48:37;;;;;;;13.30;8.13;;;;;;;8.85;100.00;99562.91;5022400;28;20477;-69
2024/02/07 02:51:05;;;;;;;13.60;9.23;;;;;;;8.82;100.00;99546.38;4997988;28;20805;-68
2024/02/07 02:53:33;;;;;;;16.42;7.85;;;;;;;8.79;100.00;99552.69;5011656;28;20053;-70
2024/02/07 02:56:05;;;;;;;13.90;8.32;;;;;;;8.87;100.00;99549.63;5031870;28;20037;-70
2024/02/07 02:58:34;;;;;;;13.27;8.32;;;;;;;8.90;100.00;99552.09;5015391;28;20415;-72
2024/02/07 03:01:13;;;;;;;17.40;7.60;;;;;;;8.90;100.00;99542.41;5004919;28;20042;-71
2024/02/07 03:03:53;;;;;;;14.85;7.47;;;;;;;8.93;100.00;99530.81;5025317;28;20053;-71
2024/02/07 03:06:29;;;;;;;16.90;7.50;;;;;;;8.95;100.00;99547.44;5015311;28;20135;-69
2024/02/07 03:09:07;;;;;;;11.77;7.53;;;;;;;8.94;100.00;99527.25;5025263;28;20599;-71
2024/02/07 03:11:40;;;;;;;13.40;7.18;;;;;;;8.99;100.00;99533.97;5017633;28;20037;-70
2024/02/07 03:14:09;;;;;;;11.38;6.82;;;;;;;8.99;100.00;99501.44;5023298;28;20049;-70
2024/02/07 03:16:39;;;;;;;10.77;6.97;;;;;;;9.09;100.00;99505.28;5025594;28;20692;-70
2024/02/07 03:19:08;;;;;;;12.02;7.63;;;;;;;9.06;100.00;99511.59;5016565;28;20069;-70
2024/02/07 03:21:36;;;;;;;10.35;6.90;;;;;;;8.86;100.00;99495.97;5021142;28;20045;-70
2024/02/07 03:24:07;;;;;;;10.30;6.65;;;;;;;8.92;100.00;99510.63;5013174;28;20550;-70
2024/02/07 03:26:35;;;;;;;11.18;6.97;;;;;;;8.90;100.00;99504.59;4993784;28;20049;-70
2024/02/07 03:29:05;;;;;;;11.98;6.70;;;;;;;8.88;100.00;99509.09;5028261;28;20045;-72
2024/02/07 03:31:37;;;;;;;11.90;7.30;;;;;;;8.67;100.00;99474.97;5004502;28;20041;-71
2024/02/07 03:34:09;;;;;;;13.00;6.88;;;;;;;8.85;100.00;99506.59;5006752;28;20049;-71
2024/02/07 03:36:38;;;;;;;12.90;7.60;;;;;;;8.87;100.00;99489.75;5015433;28;20038;-72
2024/02/07 03:39:09;;;;;;;10.45;6.65;;;;;;;8.92;100.00;99492.16;5036994;28;20046;-70
2024/02/07 03:41:41;;;;;;;11.90;6.15;;;;;;;8.88;100.00;99493.25;4994767;28;20069;-71
2024/02/07 03:44:12;;;;;;;13.15;6.43;;;;;;;8.87;100.00;99496.81;5022809;28;20149;-69
2024/02/07 03:46:42;;;;;;;13.43;6.13;;;;;;;8.94;100.00;99496.41;5019720;28;20054;-71
2024/02/07 03:49:12;;;;;;;9.45;6.05;;;;;;;9.06;100.00;99493.09;5015865;28;20144;-72
2024/02/07 03:51:40;;;;;;;10.23;6.18;;;;;;;9.04;100.00;99483.56;5014406;28;20042;-70
2024/02/07 03:54:09;;;;;;;9.88;6.13;;;;;;;8.97;100.00;99474.28;5020242;28;20088;-70
2024/02/07 03:56:38;;;;;;;9.50;5.53;;;;;;;9.04;100.00;99486.19;4990035;28;20041;-71
2024/02/07 03:59:07;;;;;;;10.38;6.25;;;;;;;9.06;100.00;99481.69;5006072;28;20038;-70
2024/02/07 04:01:39;;;;;;;10.93;6.13;;;;;;;9.01;100.00;99483.72;5008589;28;20462;-71
2024/02/07 04:04:08;;;;;;;14.13;6.30;;;;;;;8.88;100.00;99470.34;5026240;28;20095;-70
2024/02/07 04:06:41;;;;;;;10.07;5.55;;;;;;;8.91;100.00;99477.25;5016223;28;20097;-70
2024/02/07 04:09:10;;;;;;;9.00;5.70;;;;;;;9.02;100.00;99485.41;5022110;28;20046;-71
2024/02/07 05:17:18;;;;;;;17.30;8.80;;;;;;;8.62;100.00;99344.25;5015880;28;20503;-73
2024/02/07 05:19:47;;;;;;;15.73;8.77;;;;;;;8.72;100.00;99356.81;5021511;28;20092;-72
2024/02/07 05:22:18;;;;;;;17.63;9.70;;;;;;;8.71;100.00;99341.91;5009865;28;20041;-73
2024/02/07 05:24:49;;;;;;;14.68;8.32;;;;;;;8.76;100.00;99354.88;5021571;28;20045;-73
2024/02/07 05:27:20;;;;;;;17.45;10.38;;;;;;;8.70;100.00;99342.84;5005959;28;20143;-71
2024/02/07 05:29:52;;;;;;;19.58;9.95;;;;;;;8.68;100.00;99338.59;5021027;28;20113;-71
2024/02/07 05:32:21;;;;;;;19.20;9.77;;;;;;;8.71;100.00;99331.38;5014068;28;20514;-72
2024/02/07 05:34:53;;;;;;;19.85;9.52;;;;;;;8.70;100.00;99332.31;5024167;28;20045;-71
2024/02/07 05:37:22;;;;;;;16.98;8.85;;;;;;;8.68;100.00;99328.03;5011213;28;20045;-73
2024/02/07 05:39:51;;;;;;;18.98;8.93;;;;;;;8.62;100.00;99326.63;5012112;28;20041;-71
2024/02/07 05:42:20;;;;;;;16.88;9.57;;;;;;;8.59;100.00;99339.13;5018302;28;20045;-72
2024/02/07 05:44:49;;;;;;;15.90;9.13;;;;;;;8.55;100.00;99332.31;5013288;28;20482;-70
2024/02/07 05:47:17;;;;;;;16.60;9.20;;;;;;;8.49;100.00;99324.75;5021223;28;20038;-73
2024/02/07 05:49:46;;;;;;;13.98;8.45;;;;;;;8.61;100.00;99334.63;5012314;28;20099;-71
2024/02/07 05:52:18;;;;;;;22.38;10.35;;;;;;;8.57;100.00;99325.16;5018153;28;20045;-69
2024/02/07 05:54:49;;;;;;;15.27;8.57;;;;;;;8.60;100.00;99333.75;5012483;28;20053;-73
2024/02/07 05:57:22;;;;;;;19.90;9.55;;;;;;;8.50;100.00;99329.91;5028842;28;20132;-72
2024/02/07 05:59:52;;;;;;;14.55;8.95;;;;;;;8.50;100.00;99324.63;4999592;28;20044;-72
2024/02/07 06:02:21;;;;;;;15.13;9.05;;;;;;;8.56;100.00;99334.84;5020435;28;20060;-71
2024/02/07 06:04:52;;;;;;;14.88;9.10;;;;;;;8.55;100.00;99327.03;5033421;28;20606;-71
2024/02/07 06:07:24;;;;;;;16.17;9.43;;;;;;;8.54;100.00;99333.25;4993838;28;20045;-71
2024/02/07 06:09:52;;;;;;;17.73;9.18;;;;;;;8.52;100.00;99335.09;4994820;28;20508;-71
2024/02/07 06:12:22;;;;;;;20.85;9.00;;;;;;;8.51;100.00;99328.13;4988671;28;20431;-70
2024/02/07 06:14:52;;;;;;;17.85;9.35;;;;;;;8.43;100.00;99324.13;5007772;28;20069;-70
2024/02/07 06:17:20;;;;;;;13.40;8.93;;;;;;;8.53;100.00;99320.97;5008196;28;20059;-71
2024/02/07 06:19:49;;;;;;;17.77;9.30;;;;;;;8.18;100.00;99272.81;4994657;28;20092;-70
2024/02/07 06:22:17;;;;;;;16.40;9.80;;;;;;;8.45;100.00;99326.69;5016481;28;20042;-72
2024/02/07 06:24:46;;;;;;;16.45;9.43;;;;;;;8.40;100.00;99313.75;5026173;28;20112;-72
2024/02/07 06:27:14;;;;;;;18.23;9.27;;;;;;;8.42;100.00;99322.44;5008010;28;20282;-70
2024/02/07 06:29:43;;;;;;;19.70;9.75;;;;;;;8.40;100.00;99323.44;5007184;28;20199;-72
2024/02/07 06:32:12;;;;;;;16.70;9.32;;;;;;;8.43;100.00;99323.28;5011028;28;20470;-72
2024/02/07 06:34:40;;;;;;;15.02;9.15;;;;;;;8.38;100.00;99320.03;5018653;28;20081;-71
2024/02/07 06:37:10;;;;;;;22.50;10.10;;;;;;;8.39;100.00;99321.75;5012657;28;20073;-70
2024/02/07 06:39:38;;;;;;;20.90;10.02;;;;;;;8.39;100.00;99313.84;4995450;28;20037;-70
2024/02/07 06:42:07;;;;;;;19.67;10.02;;;;;;;8.38;100.00;99305.06;5018044;28;20141;-72
2024/02/07 06:44:38;;;;;;;15.30;9.40;;;;;;;8.43;100.00;99325.94;5039467;28;20057;-71
2024/02/07 06:47:07;;;;;;;18.98;9.38;;;;;;;8.38;100.00;99317.41;5021069;28;20532;-71
2024/02/07 06:49:37;;;;;;;17.38;9.07;;;;;;;8.29;100.00;99296.78;5026588;28;20068;-71
2024/02/07 06:52:05;;;;;;;19.27;9.43;;;;;;;8.32;100.00;99302.78;5022404;28;20160;-72
2024/02/07 06:54:33;;;;;;;16.60;9.57;;;;;;;8.37;100.00;99318.34;5021284;28;20105;-73
2024/02/07 06:57:01;;;;;;;19.33;10.52;;;;;;;8.34;100.00;99310.63;5003126;28;20057;-72
2024/02/07 06:59:29;;;;;;;20.05;9.57;;;;;;;8.31;100.00;99305.47;5013589;28;20140;-71
2024/02/07 07:02:00;;;;;;;17.33;9.30;;;;;;;8.32;100.00;99305.44;5007175;28;20049;-73
2024/02/07 07:04:30;;;;;;;14.40;8.40;;;;;;;8.36;100.00;99316.63;5004877;28;20073;-72
2024/02/07 07:06:58;;;;;;;12.32;6.40;;;;;;;8.34;100.00;99318.53;5020788;28;20045;-71
2024/02/07 07:09:31;;;;;;;16.60;8.50;;;;;;;8.32;100.00;99320.41;5024732;28;20052;-72
2024/02/07 07:11:59;;;;;;;14.20;7.95;;;;;;;8.34;100.00;99321.16;5010220;28;20056;-72
2024/02/07 07:14:32;;;;;;;14.48;8.50;;;;;;;8.38;100.00;99322.69;5018301;28;20569;-72
2024/02/07 07:17:00;;;;;;;16.70;8.00;;;;;;;8.40;100.00;99320.81;5023748;28;20506;-73
2024/02/07 07:19:36;;;;;;;13.98;8.95;;;;;;;8.41;100.00;99322.53;5023525;28;20037;-71
2024/02/07 07:22:07;;;;;;;13.98;8.05;;;;;;;8.40;100.00;99320.81;5011882;28;20049;-70
2024/02/07 07:24:37;;;;;;;15.82;7.75;;;;;;;8.31;100.00;99302.84;5008908;28;20053;-70
2024/02/07 07:27:08;;;;;;;12.75;7.57;;;;;;;8.38;100.00;99320.03;5024977;28;20095;-71
2024/02/07 07:29:38;;;;;;;10.80;7.30;;;;;;;8.41;100.00;99319.88;5026207;28;20041;-70
2024/02/07 07:32:09;;;;;;;12.68;6.70;;;;;;;8.42;100.00;99316.31;5016825;28;20042;-72
2024/02/07 07:34:39;;;;;;;12.82;7.30;;;;;;;8.37;100.00;99316.56;5043381;28;20053;-70
2024/02/07 07:37:08;;;;;;;11.52;7.07;;;;;;;8.39;100.00;99304.13;5028196;28;20402;-72
2024/02/07 07:39:38;;;;;;;9.90;7.00;;;;;;;8.38;100.00;99307.72;5032429;28;20045;-71
2024/02/07 07:42:07;;;;;;;11.07;7.03;;;;;;;8.41;100.00;99312.81;5030916;28;20060;-71
2024/02/07 07:44:38;;;;;;;13.85;6.88;;;;;;;8.39;100.00;99311.19;5034021;28;20076;-71
2024/02/07 07:47:06;;;;;;;;;;;;;;;8.39;100.00;99305.91;5026376;28;20482;-71
2024/02/07 07:49:34;;;;;;;12.32;6.78;;;;;;;8.41;100.00;99301.41;5031334;28;19948;-71
2024/02/07 07:52:06;;;;;;;11.88;6.78;;;;;;;8.38;100.00;99294.50;5017479;28;20407;-71
2024/02/07 07:54:37;;;;;;;13.35;7.15;;;;;;;8.45;100.00;99310.88;5030266;28;20414;-71
2024/02/07 07:57:06;;;;;;;11.27;7.22;;;;;;;8.48;100.00;99301.94;5018153;28;20041;-71
2024/02/07 07:59:37;;;;;;;13.30;7.05;;;;;;;8.49;100.00;99295.72;5024942;28;20049;-72
2024/02/07 08:02:05;;;;;;;10.80;6.95;;;;;;;8.51;100.00;99301.75;5004260;28;20108;-70
2024/02/07 08:04:33;;;;;;;12.30;6.82;;;;;;;8.49;100.00;99296.59;5023075;28;20046;-70
2024/02/07 08:07:01;;;;;;;12.48;7.03;;;;;;;8.48;100.00;99302.78;5025077;28;20042;-73
2024/02/07 08:09:31;;;;;;;16.40;7.38;;;;;;;8.48;100.00;99302.78;5022499;28;20042;-70
2024/02/07 08:11:59;;;;;;;9.95;6.57;;;;;;;8.53;100.00;99305.16;5016427;28;20107;-71
2024/02/07 08:14:29;;;;;;;10.85;6.72;;;;;;;8.55;100.00;99301.50;5005934;28;20522;-73
2024/02/07 08:16:59;;;;;;;11.77;7.03;;;;;;;8.59;100.00;99296.91;5012310;28;20477;-72
2024/02/07 08:19:30;;;;;;;10.05;6.53;;;;;;;8.55;100.00;99283.03;5028010;28;20047;-73
2024/02/07 08:21:59;;;;;;;11.00;6.60;;;;;;;8.56;100.00;99281.22;5014946;28;20036;-71
2024/02/07 08:24:27;;;;;;;12.88;6.72;;;;;;;8.58;100.00;99297.84;5012331;28;20496;-71
2024/02/07 08:26:57;;;;;;;11.63;6.80;;;;;;;8.60;100.00;99295.97;5010410;28;20069;-73
2024/02/07 08:29:32;;;;;;;10.13;6.72;;;;;;;8.65;100.00;99284.22;5016064;28;20061;-73
2024/02/07 08:32:00;;;;;;;11.93;6.07;;;;;;;8.60;100.00;99286.25;5010919;28;20064;-71
2024/02/07 08:34:30;;;;;;;8.27;6.20;;;;;;;8.65;100.00;99286.88;5025422;28;20055;-72
2024/02/07 08:36:59;;;;;;;11.23;6.10;;;;;;;8.61;100.00;99295.88;5016108;28;20132;-73
2024/02/07 08:39:31;;;;;;;10.38;7.00;;;;;;;8.61;100.00;99295.03;5019901;28;20073;-73
2024/02/07 08:42:05;;;;;;;10.23;5.85;;;;;;;8.63;100.00;99298.44;5013169;28;20053;-75
2024/02/07 08:44:33;;;;;;;11.95;6.40;;;;;;;8.60;100.00;99290.69;5016988;28;20058;-74
2024/02/07 08:47:03;;;;;;;11.85;6.30;;;;;;;8.53;100.00;99282.25;5015498;28;20124;-72
2024/02/07 08:49:40;;;;;;;13.48;6.90;;;;;;;8.56;100.00;99287.38;5015158;28;20087;-73
2024/02/07 08:52:08;;;;;;;12.27;6.40;;;;;;;8.60;100.00;99294.19;5013332;28;20037;-72
2024/02/07 08:54:39;;;;;;;12.93;6.85;;;;;;;8.56;100.00;99284.72;5009640;28;20041;-71
2024/02/07 08:57:08;;;;;;;12.73;6.75;;;;;;;8.58;100.00;99296.06;5012903;28;20046;-71
2024/02/07 08:59:36;;;;;;;11.27;6.43;;;;;;;8.57;100.00;99293.50;5015114;28;20115;-73
2024/02/07 09:02:05;;;;;;;10.63;6.43;;;;;;;8.62;100.00;99289.66;5015240;28;20049;-72
2024/02/07 09:04:34;;;;;;;10.43;6.45;;;;;;;8.67;100.00;99286.75;5009731;28;20073;-73
2024/02/07 09:07:03;;;;;;;12.85;6.78;;;;;;;8.64;100.00;99290.44;5037760;28;20054;-73
2024/02/07 09:09:32;;;;;;;9.27;5.90;;;;;;;8.65;100.00;99286.88;5022682;28;20593;-71
2024/02/07 09:12:01;;;;;;;13.30;6.57;;;;;;;8.67;100.00;99284.97;5020608;28;20051;-72
2024/02/07 09:18:48;;;;;;;10.82;5.78;;;;;;;8.70;100.00;99268.09;5025418;28;20072;-72
2024/02/07 09:21:17;;;;;;;11.65;5.63;;;;;;;8.78;100.00;99276.44;5041649;28;20041;-69
2024/02/07 09:23:49;;;;;;;10.68;5.90;;;;;;;8.74;100.00;99265.22;5020125;28;20049;-73
2024/02/07 09:26:24;;;;;;;10.40;6.05;;;;;;;8.81;100.00;99268.38;5035797;28;20050;-74
2024/02/07 09:28:53;;;;;;;8.88;5.85;;;;;;;8.80;100.00;99269.31;5035533;28;20556;-74
2024/02/07 09:31:24;;;;;;;7.65;5.68;;;;;;;8.90;100.00;99267.81;5035471;28;20053;-73
2024/02/07 09:33:55;;;;;;;8.95;5.07;;;;;;;8.92;100.00;99273.88;5032182;28;20045;-74
2024/02/07 09:36:23;;;;;;;8.07;5.25;;;;;;;8.85;100.00;99261.09;5033263;28;20490;-73
2024/02/07 09:38:52;;;;;;;7.88;4.90;;;;;;;8.81;100.00;99255.16;5027066;28;20049;-71
2024/02/07 09:41:22;;;;;;;8.98;5.68;;;;;;;8.86;100.00;99268.94;5024076;28;20113;-74
2024/02/07 09:44:01;;;;;;;6.95;4.80;;;;;;;8.86;100.00;99268.94;5014207;28;20064;-74
2024/02/07 09:46:37;;;;;;;9.85;5.63;;;;;;;8.95;100.00;99273.69;5020783;28;20042;-70
2024/02/07 09:49:11;;;;;;;6.57;4.53;;;;;;;8.94;100.00;99266.72;5012928;28;20045;-73
2024/02/07 09:51:41;;;;;;;8.40;5.55;;;;;;;8.95;100.00;99257.00;4997774;28;20120;-70
2024/02/07 09:54:12;;;;;;;7.00;5.03;;;;;;;9.01;100.00;99257.47;5015104;28;20481;-70
2024/02/07 09:56:41;;;;;;;10.77;5.10;;;;;;;9.02;100.00;99253.91;5020245;28;20038;-72
2024/02/07 09:59:15;;;;;;;8.70;4.80;;;;;;;9.02;100.00;99256.53;5007808;28;20467;-74
2024/02/07 10:01:48;;;;;;;8.48;4.70;;;;;;;9.11;100.00;99252.53;5022290;28;20044;-73
2024/02/07 10:04:25;;;;;;;5.78;4.38;;;;;;;9.17;100.00;99248.66;5020282;28;20057;-71
2024/02/07 10:07:01;;;;;;;7.43;4.68;;;;;;;9.15;100.00;99238.16;5008276;28;20625;-72
2024/02/07 10:09:31;;;;;;;9.57;4.47;;;;;;;9.18;100.00;99237.16;5022524;28;20061;-72
2024/02/07 10:12:01;;;;;;;6.93;4.13;;;;;;;9.23;100.00;99254.44;5004003;28;20045;-72
2024/02/07 10:14:31;;;;;;;5.65;4.18;;;;;;;9.23;100.00;99250.94;4998533;28;20056;-73
2024/02/07 10:17:07;;;;;;;7.60;4.20;;;;;;;9.26;100.00;99246.31;5022787;28;20309;-72
2024/02/07 10:19:39;;;;;;;5.07;3.92;;;;;;;9.29;100.00;99248.75;5021674;28;20052;-71
2024/02/07 10:22:15;;;;;;;4.75;3.80;;;;;;;9.24;100.00;99237.63;5008497;28;20418;-76
2024/02/07 10:24:46;;;;;;;6.05;4.25;;;;;;;9.25;100.00;99238.50;5018097;28;20049;-70
2024/02/07 10:27:20;;;;;;;7.50;3.72;;;;;;;9.22;100.00;99234.22;5012022;28;20108;-72
2024/02/07 10:29:49;;;;;;;6.35;3.83;;;;;;;9.35;100.00;99245.75;5009889;28;20045;-72
2024/02/07 10:32:20;;;;;;;5.82;3.80;;;;;;;9.30;100.00;99233.75;5008085;28;20446;-71
2024/02/07 10:34:54;;;;;;;5.63;3.60;;;;;;;9.30;100.00;99239.91;4999250;28;20034;-72
2024/02/07 10:37:25;;;;;;;3.80;2.80;;;;;;;9.21;100.00;99210.56;5024883;28;20053;-72
2024/02/07 10:40:01;;;;;;;4.95;2.95;;;;;;;9.38;100.00;99239.44;5007200;28;20140;-74
2024/02/07 10:42:30;;;;;;;6.45;3.22;;;;;;;9.44;100.00;99241.72;5007335;28;20573;-73
2024/02/07 10:45:03;;;;;;;5.10;3.38;;;;;;;9.44;100.00;99245.19;4973644;28;20606;-70
2024/02/07 10:47:33;;;;;;;4.57;3.20;;;;;;;9.49;100.00;99234.34;5021653;28;20068;-71
2024/02/07 10:50:05;;;;;;;6.13;2.75;;;;;;;9.61;100.00;99243.31;5004249;28;21682;-68
2024/02/07 10:52:39;;;;;;;5.47;2.78;;;;;;;9.58;100.00;99241.75;5007191;28;20085;-71
2024/02/07 10:55:11;;;;;;;13.80;8.35;;;;;;;9.50;100.00;99223.69;4991469;28;20045;-71
2024/02/07 10:57:43;;;;;;;3.73;2.80;;;;;;;9.56;100.00;99226.91;5011244;28;20121;-70
2024/02/07 11:00:14;;;;;;;3.20;2.40;;;;;;;9.42;100.00;99210.13;5024271;28;20041;-76
2024/02/07 11:02:44;;;;;;;4.65;2.80;;;;;;;9.54;100.00;99232.28;5001874;28;20053;-73
2024/02/07 11:05:14;;;;;;;3.28;2.40;;;;;;;9.58;100.00;99217.94;5021641;28;20042;-72
2024/02/07 11:07:43;;;;;;;4.25;2.58;;;;;;;9.60;100.00;99223.97;4989442;28;20049;-69
2024/02/07 11:10:17;;;;;;;5.15;2.63;;;;;;;9.62;100.00;99218.59;5001457;28;23524;-70
2024/02/07 11:12:48;;;;;;;4.53;2.38;;;;;;;9.63;100.00;99213.22;4997235;28;20054;-70
2024/02/07 11:15:19;;;;;;;3.92;2.50;;;;;;;9.62;100.00;99213.31;5014899;28;20049;-69
2024/02/07 11:17:48;;;;;;;3.42;2.13;;;;;;;9.64;100.00;99209.63;5018957;28;20096;-69
2024/02/07 11:20:21;;;;;;;2.92;2.53;;;;;;;9.53;100.00;99185.66;4985178;28;20046;-69
2024/02/07 11:22:51;;;;;;;2.78;2.00;;;;;;;9.67;100.00;99200.66;5012703;28;20042;-70
2024/02/07 11:25:23;;;;;;;3.88;2.80;;;;;;;9.66;100.00;99197.16;5003897;28;20471;-69
2024/02/07 11:27:53;;;;;;;5.50;3.15;;;;;;;9.73;100.00;99189.72;5008939;28;20123;-71
2024/02/07 11:30:21;;;;;;;4.03;2.67;;;;;;;9.71;100.00;99186.31;5004471;28;20502;-70
2024/02/07 11:32:53;;;;;;;6.18;3.22;;;;;;;9.75;100.00;99190.47;5021194;28;20042;-69
2024/02/07 11:35:25;;;;;;;4.35;2.53;;;;;;;9.75;100.00;99185.19;5021196;28;20046;-70
2024/02/07 11:38:02;;;;;;;3.83;2.22;;;;;;;9.75;100.00;99193.97;5035319;28;20049;-70
2024/02/07 11:40:38;;;;;;;2.33;1.98;;;;;;;9.74;100.00;99178.19;5014035;28;20108;-70
2024/02/07 11:43:10;;;;;;;5.53;2.33;;;;;;;9.72;100.00;99191.50;5006616;28;20050;-70
2024/02/07 11:45:43;;;;;;;3.92;2.50;;;;;;;9.70;100.00;99189.91;5020897;28;20100;-71
2024/02/07 11:48:19;;;;;;;3.88;2.30;;;;;;;9.66;100.00;99180.47;4995717;28;20105;-71
2024/02/07 11:50:50;;;;;;;3.92;2.53;;;;;;;9.69;100.00;99177.63;5008295;28;20049;-72
2024/02/07 11:53:18;;;;;;;;;;;;;;;9.64;100.00;99177.91;5018575;28;20060;-70
2024/02/07 11:55:47;;;;;;;7.07;3.50;;;;;;;9.60;100.00;99170.28;5005000;28;19925;-73
2024/02/07 11:58:18;;;;;;;4.05;2.15;;;;;;;9.57;100.00;99166.03;5016544;28;20038;-72
2024/02/07 12:00:47;;;;;;;7.50;3.25;;;;;;;9.56;100.00;99171.41;5005080;28;20041;-72
2024/02/07 12:03:18;;;;;;;5.45;2.58;;;;;;;9.59;100.00;99174.72;5004072;28;20117;-71
2024/02/07 12:05:49;;;;;;;;;;;;;;;9.60;100.00;99176.38;5000591;28;20053;-72
2024/02/07 12:08:20;;;;;;;4.15;2.30;;;;;;;9.69;100.00;99181.13;5026184;28;19925;-71
2024/02/07 12:10:51;;;;;;;3.75;2.28;;;;;;;9.68;100.00;99178.56;5016152;28;20060;-72
2024/02/07 12:13:19;;;;;;;4.63;2.10;;;;;;;9.66;100.00;99154.88;5030321;28;20045;-72
2024/02/07 12:15:47;;;;;;;3.10;2.05;;;;;;;9.69;100.00;99156.47;4991979;28;20053;-71
2024/02/07 12:18:16;;;;;;;5.13;2.35;;;;;;;9.56;100.00;99137.06;5014411;28;20073;-72
2024/02/07 12:20:44;;;;;;;4.03;2.28;;;;;;;9.70;100.00;99160.81;5029788;28;20037;-72
2024/02/07 12:23:14;;;;;;;3.42;2.00;;;;;;;9.58;100.00;99140.47;5007262;28;20054;-73
2024/02/07 12:25:55;;;;;;;4.45;2.08;;;;;;;9.67;100.00;99150.44;5010919;28;20236;-72
2024/02/07 12:28:26;;;;;;;4.43;2.17;;;;;;;9.63;100.00;99146.28;5007897;28;20041;-72
2024/02/07 12:30:59;;;;;;;4.57;1.95;;;;;;;9.61;100.00;99158.75;5024126;28;20048;-74
2024/02/07 12:33:31;;;;;;;3.78;2.10;;;;;;;9.62;100.00;99163.09;5021973;28;20085;-73
2024/02/07 12:36:00;;;;;;;3.45;2.35;;;;;;;9.54;100.00;99155.66;4990723;28;20059;-72
2024/02/07 12:38:31;;;;;;;3.88;2.38;;;;;;;9.58;100.00;99164.25;5005813;28;20109;-72
2024/02/07 12:40:59;;;;;;;3.67;2.10;;;;;;;9.55;100.00;99152.06;5020841;28;20494;-72
2024/02/07 12:43:28;;;;;;;3.90;2.60;;;;;;;9.56;100.00;99161.69;4986673;28;20038;-73
2024/02/07 12:45:58;;;;;;;2.90;2.40;;;;;;;9.53;100.00;99146.03;5016223;28;20080;-73
2024/02/07 12:48:28;;;;;;;4.25;2.35;;;;;;;9.44;100.00;99142.16;5002000;28;20394;-73
2024/02/07 12:51:01;;;;;;;4.85;2.40;;;;;;;9.58;100.00;99169.53;4993348;28;20840;-72
2024/02/07 12:53:34;;;;;;;4.15;2.40;;;;;;;9.56;100.00;99164.34;4998081;28;20050;-73